sensor_id;sensor_type;location;lat;lon;timestamp;pressure;altitude;pressure_sealevel;temperature;humidity
52441;BME280;39611;46.062;8.950;2023-04-28T00:01:28;96738.81;;;13.04;63.21
52441;BME280;39611;46.062;8.950;2023-04-28T00:03:55;96738.81;;;13.04;62.61
52441;BME280;39611;46.062;8.950;2023-04-28T00:06:23;96741.47;;;13.04;63.58
52441;BME280;39611;46.062;8.950;2023-04-28T00:08:49;96740.06;;;13.11;62.91
52441;BME280;39611;46.062;8.950;2023-04-28T00:11:16;96737.69;;;13.10;62.87
52441;BME280;39611;46.062;8.950;2023-04-28T00:13:42;96730.88;;;12.99;63.32
52441;BME280;39611;46.062;8.950;2023-04-28T00:16:08;96720.84;;;12.96;64.08
52441;BME280;39611;46.062;8.950;2023-04-28T00:18:35;96723.75;;;12.94;64.56
52441;BME280;39611;46.062;8.950;2023-04-28T00:21:01;96727.59;;;12.83;64.79
52441;BME280;39611;46.062;8.950;2023-04-28T00:23:28;96740.13;;;12.77;64.01
52441;BME280;39611;46.062;8.950;2023-04-28T00:25:54;96741.44;;;12.80;65.13
52441;BME280;39611;46.062;8.950;2023-04-28T00:28:22;96734.25;;;12.80;65.44
52441;BME280;39611;46.062;8.950;2023-04-28T00:30:59;96732.34;;;12.86;64.23
52441;BME280;39611;46.062;8.950;2023-04-28T00:33:26;96735.63;;;12.78;64.79
52441;BME280;39611;46.062;8.950;2023-04-28T00:35:59;96737.00;;;12.70;64.20
52441;BME280;39611;46.062;8.950;2023-04-28T00:38:26;96730.31;;;12.78;64.78
52441;BME280;39611;46.062;8.950;2023-04-28T00:40:52;96725.22;;;12.81;64.98
52441;BME280;39611;46.062;8.950;2023-04-28T00:43:19;96728.22;;;12.75;65.16
52441;BME280;39611;46.062;8.950;2023-04-28T00:45:45;96737.63;;;12.62;65.96
52441;BME280;39611;46.062;8.950;2023-04-28T00:48:12;96734.91;;;12.67;66.07
52441;BME280;39611;46.062;8.950;2023-04-28T00:50:39;96732.34;;;12.57;66.22
52441;BME280;39611;46.062;8.950;2023-04-28T00:53:05;96728.63;;;12.58;65.31
52441;BME280;39611;46.062;8.950;2023-04-28T00:55:34;96727.22;;;12.65;65.19
52441;BME280;39611;46.062;8.950;2023-04-28T00:58:01;96730.41;;;12.67;65.93
52441;BME280;39611;46.062;8.950;2023-04-28T01:00:27;96731.53;;;12.61;66.67
52441;BME280;39611;46.062;8.950;2023-04-28T01:02:54;96723.53;;;12.66;66.06
52441;BME280;39611;46.062;8.950;2023-04-28T01:05:22;96726.97;;;12.67;65.92
52441;BME280;39611;46.062;8.950;2023-04-28T01:07:49;96729.63;;;12.67;65.35
52441;BME280;39611;46.062;8.950;2023-04-28T01:10:15;96719.59;;;12.59;66.64
52441;BME280;39611;46.062;8.950;2023-04-28T01:12:42;96727.00;;;12.62;66.32
52441;BME280;39611;46.062;8.950;2023-04-28T01:15:15;96735.00;;;12.57;66.35
52441;BME280;39611;46.062;8.950;2023-04-28T01:17:42;96728.56;;;12.63;66.14
52441;BME280;39611;46.062;8.950;2023-04-28T01:20:09;96732.59;;;12.60;66.25
52441;BME280;39611;46.062;8.950;2023-04-28T01:22:36;96730.78;;;12.56;67.04
52441;BME280;39611;46.062;8.950;2023-04-28T01:25:02;96723.13;;;12.49;67.40
52441;BME280;39611;46.062;8.950;2023-04-28T01:27:29;96724.78;;;12.40;67.56
52441;BME280;39611;46.062;8.950;2023-04-28T01:29:55;96722.09;;;12.45;68.12
52441;BME280;39611;46.062;8.950;2023-04-28T01:32:23;96725.09;;;12.38;68.20
52441;BME280;39611;46.062;8.950;2023-04-28T01:34:49;96725.91;;;12.34;68.91
52441;BME280;39611;46.062;8.950;2023-04-28T01:37:16;96725.91;;;12.34;68.54
52441;BME280;39611;46.062;8.950;2023-04-28T01:39:43;96736.84;;;12.27;68.37
52441;BME280;39611;46.062;8.950;2023-04-28T01:42:09;96728.84;;;12.32;68.91
52441;BME280;39611;46.062;8.950;2023-04-28T01:44:36;96732.56;;;12.31;69.70
52441;BME280;39611;46.062;8.950;2023-04-28T01:47:02;96734.66;;;12.34;69.75
52441;BME280;39611;46.062;8.950;2023-04-28T01:49:28;96734.91;;;12.38;68.83
52441;BME280;39611;46.062;8.950;2023-04-28T01:51:55;96744.22;;;12.35;68.86
52441;BME280;39611;46.062;8.950;2023-04-28T01:54:21;96735.22;;;12.31;68.65
52441;BME280;39611;46.062;8.950;2023-04-28T01:56:48;96747.22;;;12.23;69.10
52441;BME280;39611;46.062;8.950;2023-04-28T01:59:14;96746.72;;;12.16;69.58
52441;BME280;39611;46.062;8.950;2023-04-28T02:01:41;96749.09;;;12.18;69.08
52441;BME280;39611;46.062;8.950;2023-04-28T02:04:07;96751.50;;;12.19;69.19
52441;BME280;39611;46.062;8.950;2023-04-28T02:06:34;96755.88;;;12.34;68.80
52441;BME280;39611;46.062;8.950;2023-04-28T02:09:01;96757.75;;;12.34;69.49
52441;BME280;39611;46.062;8.950;2023-04-28T02:11:27;96753.84;;;12.21;70.23
52441;BME280;39611;46.062;8.950;2023-04-28T02:13:53;96752.03;;;12.16;70.27
52441;BME280;39611;46.062;8.950;2023-04-28T02:16:20;96747.00;;;12.15;70.58
52441;BME280;39611;46.062;8.950;2023-04-28T02:18:47;96755.00;;;12.10;70.83
52441;BME280;39611;46.062;8.950;2023-04-28T02:21:13;96752.66;;;12.03;71.67
52441;BME280;39611;46.062;8.950;2023-04-28T02:23:39;96747.84;;;12.10;70.60
52441;BME280;39611;46.062;8.950;2023-04-28T02:26:06;96750.44;;;12.15;70.07
52441;BME280;39611;46.062;8.950;2023-04-28T02:28:32;96745.41;;;12.14;71.03
52441;BME280;39611;46.062;8.950;2023-04-28T02:31:08;96748.34;;;12.12;71.31
52441;BME280;39611;46.062;8.950;2023-04-28T02:33:36;96744.84;;;12.22;69.99
52441;BME280;39611;46.062;8.950;2023-04-28T02:36:04;96732.16;;;12.14;69.97
52441;BME280;39611;46.062;8.950;2023-04-28T02:38:31;96733.50;;;12.11;70.34
52441;BME280;39611;46.062;8.950;2023-04-28T02:41:02;96731.97;;;12.05;70.35
52441;BME280;39611;46.062;8.950;2023-04-28T02:43:30;96729.22;;;12.15;71.21
52441;BME280;39611;46.062;8.950;2023-04-28T02:45:57;96729.00;;;12.12;71.57
52441;BME280;39611;46.062;8.950;2023-04-28T02:48:24;96716.75;;;12.16;71.25
52441;BME280;39611;46.062;8.950;2023-04-28T02:50:51;96715.94;;;12.20;71.25
52441;BME280;39611;46.062;8.950;2023-04-28T02:53:18;96712.22;;;12.21;70.51
52441;BME280;39611;46.062;8.950;2023-04-28T02:55:45;96716.50;;;12.17;70.63
52441;BME280;39611;46.062;8.950;2023-04-28T02:58:12;96713.56;;;12.19;70.33
52441;BME280;39611;46.062;8.950;2023-04-28T03:00:38;96706.44;;;12.14;71.00
52441;BME280;39611;46.062;8.950;2023-04-28T03:03:05;96708.84;;;12.11;71.84
52441;BME280;39611;46.062;8.950;2023-04-28T03:05:32;96721.53;;;12.14;72.59
52441;BME280;39611;46.062;8.950;2023-04-28T03:07:58;96731.06;;;12.20;71.14
52441;BME280;39611;46.062;8.950;2023-04-28T03:10:25;96736.34;;;12.25;70.68
52441;BME280;39611;46.062;8.950;2023-04-28T03:12:52;96734.19;;;12.27;69.81
52441;BME280;39611;46.062;8.950;2023-04-28T03:15:18;96732.03;;;12.29;70.62
52441;BME280;39611;46.062;8.950;2023-04-28T03:17:44;96746.91;;;12.30;71.13
52441;BME280;39611;46.062;8.950;2023-04-28T03:20:11;96740.28;;;12.28;71.84
52441;BME280;39611;46.062;8.950;2023-04-28T03:22:38;96743.78;;;12.23;71.72
52441;BME280;39611;46.062;8.950;2023-04-28T03:25:05;96731.63;;;12.17;72.97
52441;BME280;39611;46.062;8.950;2023-04-28T03:27:31;96724.72;;;12.16;73.31
52441;BME280;39611;46.062;8.950;2023-04-28T03:29:58;96728.97;;;12.17;73.80
52441;BME280;39611;46.062;8.950;2023-04-28T03:32:24;96733.94;;;12.23;73.46
52441;BME280;39611;46.062;8.950;2023-04-28T03:34:50;96729.47;;;12.19;72.74
52441;BME280;39611;46.062;8.950;2023-04-28T03:37:17;96729.66;;;12.33;70.30
52441;BME280;39611;46.062;8.950;2023-04-28T03:39:43;96729.34;;;12.34;69.75
52441;BME280;39611;46.062;8.950;2023-04-28T03:42:09;96730.16;;;12.35;70.84
52441;BME280;39611;46.062;8.950;2023-04-28T03:44:36;96722.75;;;12.32;71.46
52441;BME280;39611;46.062;8.950;2023-04-28T03:47:02;96716.47;;;12.22;70.82
52441;BME280;39611;46.062;8.950;2023-04-28T03:49:28;96715.94;;;12.20;70.59
52441;BME280;39611;46.062;8.950;2023-04-28T03:51:55;96718.25;;;12.32;70.80
52441;BME280;39611;46.062;8.950;2023-04-28T03:54:21;96703.94;;;12.28;71.00
52441;BME280;39611;46.062;8.950;2023-04-28T03:56:47;96700.16;;;12.34;70.79
52441;BME280;39611;46.062;8.950;2023-04-28T03:59:14;96707.06;;;12.35;73.21
52441;BME280;39611;46.062;8.950;2023-04-28T04:01:40;96708.16;;;12.29;73.70
52441;BME280;39611;46.062;8.950;2023-04-28T04:04:07;96713.03;;;12.22;73.81
52441;BME280;39611;46.062;8.950;2023-04-28T04:06:34;96714.91;;;12.16;73.54
52441;BME280;39611;46.062;8.950;2023-04-28T04:09:00;96713.63;;;12.09;73.14
52441;BME280;39611;46.062;8.950;2023-04-28T04:11:27;96705.63;;;12.14;72.79
52441;BME280;39611;46.062;8.950;2023-04-28T04:13:53;96706.06;;;12.26;72.70
52441;BME280;39611;46.062;8.950;2023-04-28T04:16:19;96700.25;;;12.24;74.27
52441;BME280;39611;46.062;8.950;2023-04-28T04:18:47;96703.97;;;12.23;73.91
52441;BME280;39611;46.062;8.950;2023-04-28T04:21:14;96696.78;;;12.29;74.21
52441;BME280;39611;46.062;8.950;2023-04-28T04:23:40;96702.88;;;12.29;75.01
52441;BME280;39611;46.062;8.950;2023-04-28T04:26:07;96702.34;;;12.32;75.28
52441;BME280;39611;46.062;8.950;2023-04-28T04:28:33;96697.84;;;12.28;74.13
52441;BME280;39611;46.062;8.950;2023-04-28T04:30:59;96699.16;;;12.30;74.24
52441;BME280;39611;46.062;8.950;2023-04-28T04:33:27;96699.38;;;12.34;75.35
52441;BME280;39611;46.062;8.950;2023-04-28T04:35:54;96694.66;;;12.31;76.16
52441;BME280;39611;46.062;8.950;2023-04-28T04:38:21;96708.94;;;12.35;75.18
52441;BME280;39611;46.062;8.950;2023-04-28T04:40:47;96706.78;;;12.37;76.13
52441;BME280;39611;46.062;8.950;2023-04-28T04:43:13;96704.44;;;12.35;76.28
52441;BME280;39611;46.062;8.950;2023-04-28T04:45:40;96701.50;;;12.32;77.17
52441;BME280;39611;46.062;8.950;2023-04-28T04:48:06;96709.72;;;12.35;76.58
52441;BME280;39611;46.062;8.950;2023-04-28T04:50:33;96714.19;;;12.40;76.74
52441;BME280;39611;46.062;8.950;2023-04-28T04:52:59;96714.47;;;12.38;76.83
52441;BME280;39611;46.062;8.950;2023-04-28T04:55:25;96724.00;;;12.39;75.71
52441;BME280;39611;46.062;8.950;2023-04-28T04:57:52;96727.66;;;12.49;75.81
52441;BME280;39611;46.062;8.950;2023-04-28T05:00:18;96727.66;;;12.49;76.47
52441;BME280;39611;46.062;8.950;2023-04-28T05:02:45;96732.41;;;12.52;75.30
52441;BME280;39611;46.062;8.950;2023-04-28T05:05:11;96730.00;;;12.50;76.10
52441;BME280;39611;46.062;8.950;2023-04-28T05:07:47;96733.47;;;12.51;77.70
52441;BME280;39611;46.062;8.950;2023-04-28T05:10:14;96733.59;;;12.35;75.80
52441;BME280;39611;46.062;8.950;2023-04-28T05:12:40;96735.69;;;12.38;74.09
52441;BME280;39611;46.062;8.950;2023-04-28T05:15:07;96730.34;;;12.43;76.25
52441;BME280;39611;46.062;8.950;2023-04-28T05:17:33;96725.03;;;12.43;77.48
52441;BME280;39611;46.062;8.950;2023-04-28T05:20:00;96724.78;;;12.40;76.61
52441;BME280;39611;46.062;8.950;2023-04-28T05:22:26;96733.00;;;12.43;77.89
52441;BME280;39611;46.062;8.950;2023-04-28T05:24:53;96738.84;;;12.45;76.89
52441;BME280;39611;46.062;8.950;2023-04-28T05:27:19;96739.84;;;12.50;76.57
52441;BME280;39611;46.062;8.950;2023-04-28T05:29:46;96752.50;;;12.58;75.92
52441;BME280;39611;46.062;8.950;2023-04-28T05:32:12;96747.75;;;12.55;74.76
52441;BME280;39611;46.062;8.950;2023-04-28T05:34:39;96746.94;;;12.59;76.13
52441;BME280;39611;46.062;8.950;2023-04-28T05:37:05;96739.75;;;12.60;73.98
52441;BME280;39611;46.062;8.950;2023-04-28T05:39:32;96733.84;;;12.68;74.29
52441;BME280;39611;46.062;8.950;2023-04-28T05:41:58;96737.00;;;12.70;76.90
52441;BME280;39611;46.062;8.950;2023-04-28T05:44:25;96736.97;;;12.75;76.45
52441;BME280;39611;46.062;8.950;2023-04-28T05:46:51;96747.03;;;12.78;78.87
52441;BME280;39611;46.062;8.950;2023-04-28T05:49:18;96760.28;;;12.78;79.14
52441;BME280;39611;46.062;8.950;2023-04-28T05:51:44;96765.56;;;12.83;79.31
52441;BME280;39611;46.062;8.950;2023-04-28T05:54:10;96765.28;;;12.85;79.15
52441;BME280;39611;46.062;8.950;2023-04-28T05:56:37;96760.28;;;12.78;75.86
52441;BME280;39611;46.062;8.950;2023-04-28T05:59:03;96759.00;;;12.76;74.58
52441;BME280;39611;46.062;8.950;2023-04-28T06:01:30;96766.38;;;12.79;76.60
52441;BME280;39611;46.062;8.950;2023-04-28T06:03:57;96759.78;;;12.76;74.76
52441;BME280;39611;46.062;8.950;2023-04-28T06:06:24;96755.53;;;12.75;73.86
52441;BME280;39611;46.062;8.950;2023-04-28T06:08:51;96758.09;;;12.85;73.16
52441;BME280;39611;46.062;8.950;2023-04-28T06:11:18;96755.63;;;12.94;76.51
52441;BME280;39611;46.062;8.950;2023-04-28T06:13:48;96759.03;;;13.00;75.03
52441;BME280;39611;46.062;8.950;2023-04-28T06:16:15;96750.50;;;13.03;77.48
52441;BME280;39611;46.062;8.950;2023-04-28T06:18:42;96748.84;;;13.07;75.35
52441;BME280;39611;46.062;8.950;2023-04-28T06:21:09;96753.63;;;13.10;77.50
52441;BME280;39611;46.062;8.950;2023-04-28T06:23:35;96750.16;;;13.09;77.70
52441;BME280;39611;46.062;8.950;2023-04-28T06:26:03;96746.72;;;13.09;77.63
52441;BME280;39611;46.062;8.950;2023-04-28T06:28:30;96742.13;;;13.15;74.85
52441;BME280;39611;46.062;8.950;2023-04-28T06:30:56;96743.13;;;13.24;73.50
52441;BME280;39611;46.062;8.950;2023-04-28T06:33:25;96739.38;;;13.25;75.82
52441;BME280;39611;46.062;8.950;2023-04-28T06:35:52;96743.34;;;13.27;75.92
52441;BME280;39611;46.062;8.950;2023-04-28T06:38:18;96756.38;;;13.29;76.60
52441;BME280;39611;46.062;8.950;2023-04-28T06:40:45;96763.78;;;13.32;76.80
52441;BME280;39611;46.062;8.950;2023-04-28T06:43:11;96758.72;;;13.30;75.87
52441;BME280;39611;46.062;8.950;2023-04-28T06:45:38;96750.28;;;13.28;75.65
52441;BME280;39611;46.062;8.950;2023-04-28T06:48:04;96746.81;;;13.23;74.70
52441;BME280;39611;46.062;8.950;2023-04-28T06:50:31;96752.66;;;13.25;76.51
52441;BME280;39611;46.062;8.950;2023-04-28T06:52:58;96766.22;;;13.28;76.59
52441;BME280;39611;46.062;8.950;2023-04-28T06:55:25;96769.38;;;13.25;75.15
52441;BME280;39611;46.062;8.950;2023-04-28T06:57:52;96767.53;;;13.26;74.05
52441;BME280;39611;46.062;8.950;2023-04-28T07:00:18;96767.53;;;13.26;74.31
52441;BME280;39611;46.062;8.950;2023-04-28T07:02:44;96757.72;;;13.26;74.88
52441;BME280;39611;46.062;8.950;2023-04-28T07:05:11;96758.72;;;13.30;75.24
52441;BME280;39611;46.062;8.950;2023-04-28T07:07:41;96760.28;;;13.37;77.36
52441;BME280;39611;46.062;8.950;2023-04-28T07:10:08;96756.81;;;13.36;74.49
52441;BME280;39611;46.062;8.950;2023-04-28T07:12:36;96767.66;;;13.40;74.83
52441;BME280;39611;46.062;8.950;2023-04-28T07:15:03;96766.59;;;13.41;75.39
52441;BME280;39611;46.062;8.950;2023-04-28T07:17:29;96765.28;;;13.38;74.28
52441;BME280;39611;46.062;8.950;2023-04-28T07:19:56;96773.78;;;13.40;75.29
52441;BME280;39611;46.062;8.950;2023-04-28T07:22:22;96776.16;;;13.42;74.87
52441;BME280;39611;46.062;8.950;2023-04-28T07:24:49;96774.00;;;13.44;76.04
52441;BME280;39611;46.062;8.950;2023-04-28T07:27:15;96776.38;;;13.45;76.30
52441;BME280;39611;46.062;8.950;2023-04-28T07:29:42;96771.84;;;13.46;74.84
52441;BME280;39611;46.062;8.950;2023-04-28T07:32:08;96765.94;;;13.49;73.42
52441;BME280;39611;46.062;8.950;2023-04-28T07:34:36;96766.53;;;13.46;73.44
52441;BME280;39611;46.062;8.950;2023-04-28T07:37:03;96768.34;;;13.50;72.70
52441;BME280;39611;46.062;8.950;2023-04-28T07:39:30;96766.19;;;13.52;73.92
52441;BME280;39611;46.062;8.950;2023-04-28T07:41:57;96767.50;;;13.55;73.56
52441;BME280;39611;46.062;8.950;2023-04-28T07:44:24;96766.91;;;13.58;75.32
52441;BME280;39611;46.062;8.950;2023-04-28T07:46:52;96767.66;;;13.64;76.41
52441;BME280;39611;46.062;8.950;2023-04-28T07:49:18;96761.75;;;13.67;76.36
52441;BME280;39611;46.062;8.950;2023-04-28T07:51:44;96766.78;;;13.68;76.02
52441;BME280;39611;46.062;8.950;2023-04-28T07:54:11;96768.09;;;13.71;74.15
52441;BME280;39611;46.062;8.950;2023-04-28T07:56:38;96775.22;;;13.75;73.43
52441;BME280;39611;46.062;8.950;2023-04-28T07:59:04;96772.56;;;13.75;73.31
52441;BME280;39611;46.062;8.950;2023-04-28T08:01:30;96776.44;;;13.83;74.19
52441;BME280;39611;46.062;8.950;2023-04-28T08:03:57;96774.50;;;13.89;75.04
52441;BME280;39611;46.062;8.950;2023-04-28T08:06:24;96776.81;;;13.95;73.05
52441;BME280;39611;46.062;8.950;2023-04-28T08:08:50;96775.66;;;14.02;70.90
52441;BME280;39611;46.062;8.950;2023-04-28T08:11:17;96765.53;;;14.04;69.35
52441;BME280;39611;46.062;8.950;2023-04-28T08:13:43;96769.69;;;14.10;70.44
52441;BME280;39611;46.062;8.950;2023-04-28T08:16:10;96760.63;;;14.11;70.13
52441;BME280;39611;46.062;8.950;2023-04-28T08:18:37;96768.69;;;14.06;69.80
52441;BME280;39611;46.062;8.950;2023-04-28T08:21:05;96777.34;;;14.16;69.84
52441;BME280;39611;46.062;8.950;2023-04-28T08:23:31;96778.84;;;14.23;70.83
52441;BME280;39611;46.062;8.950;2023-04-28T08:25:58;96775.59;;;14.26;71.36
52441;BME280;39611;46.062;8.950;2023-04-28T08:28:24;96781.03;;;14.34;70.61
52441;BME280;39611;46.062;8.950;2023-04-28T08:30:51;96777.50;;;14.39;69.43
52441;BME280;39611;46.062;8.950;2023-04-28T08:33:18;96771.25;;;14.49;68.93
52441;BME280;39611;46.062;8.950;2023-04-28T08:35:45;96777.81;;;14.56;65.56
52441;BME280;39611;46.062;8.950;2023-04-28T08:38:11;96778.91;;;14.55;66.43
52441;BME280;39611;46.062;8.950;2023-04-28T08:40:40;96777.22;;;14.59;67.30
52441;BME280;39611;46.062;8.950;2023-04-28T08:43:08;96780.09;;;14.63;67.18
52441;BME280;39611;46.062;8.950;2023-04-28T08:45:40;96782.91;;;14.72;66.58
52441;BME280;39611;46.062;8.950;2023-04-28T08:48:18;96762.00;;;14.79;67.45
52441;BME280;39611;46.062;8.950;2023-04-28T08:50:52;96757.25;;;14.76;64.20
52441;BME280;39611;46.062;8.950;2023-04-28T08:53:24;96762.50;;;14.81;63.04
52441;BME280;39611;46.062;8.950;2023-04-28T08:55:55;96754.63;;;14.90;62.01
52441;BME280;39611;46.062;8.950;2023-04-28T08:58:23;96750.59;;;14.92;62.71
52441;BME280;39611;46.062;8.950;2023-04-28T09:00:51;96760.56;;;15.00;64.16
52441;BME280;39611;46.062;8.950;2023-04-28T09:03:17;96757.81;;;15.05;64.15
52441;BME280;39611;46.062;8.950;2023-04-28T09:05:44;96755.25;;;15.14;63.17
52441;BME280;39611;46.062;8.950;2023-04-28T09:08:11;96760.69;;;15.23;64.69
52441;BME280;39611;46.062;8.950;2023-04-28T09:10:37;96753.19;;;15.25;62.67
52441;BME280;39611;46.062;8.950;2023-04-28T09:13:04;96755.06;;;15.38;61.31
52441;BME280;39611;46.062;8.950;2023-04-28T09:15:35;96746.59;;;15.36;61.29
52441;BME280;39611;46.062;8.950;2023-04-28T09:18:05;96752.50;;;15.47;61.57
52441;BME280;39611;46.062;8.950;2023-04-28T09:20:34;96749.13;;;15.55;61.11
52441;BME280;39611;46.062;8.950;2023-04-28T09:23:12;96741.22;;;15.64;60.36
52441;BME280;39611;46.062;8.950;2023-04-28T09:25:39;96747.47;;;15.73;59.17
52441;BME280;39611;46.062;8.950;2023-04-28T09:28:21;96742.97;;;15.82;58.48
52441;BME280;39611;46.062;8.950;2023-04-28T09:30:48;96749.09;;;15.97;60.68
52441;BME280;39611;46.062;8.950;2023-04-28T09:33:14;96743.53;;;16.07;59.95
52441;BME280;39611;46.062;8.950;2023-04-28T09:35:44;96737.22;;;16.03;59.34
52441;BME280;39611;46.062;8.950;2023-04-28T09:38:12;96732.84;;;16.07;61.75
52441;BME280;39611;46.062;8.950;2023-04-28T09:40:59;96734.13;;;16.09;62.40
52441;BME280;39611;46.062;8.950;2023-04-28T09:45:54;96728.13;;;16.26;62.15
52441;BME280;39611;46.062;8.950;2023-04-28T09:48:35;96738.56;;;16.36;62.27
52441;BME280;39611;46.062;8.950;2023-04-28T09:51:03;96740.53;;;16.45;64.92
52441;BME280;39611;46.062;8.950;2023-04-28T09:53:31;96729.13;;;16.53;62.59
52441;BME280;39611;46.062;8.950;2023-04-28T09:56:00;96740.75;;;16.57;58.54
52441;BME280;39611;46.062;8.950;2023-04-28T09:58:28;96728.38;;;16.61;59.24
52441;BME280;39611;46.062;8.950;2023-04-28T10:00:57;96731.81;;;16.62;61.40
52441;BME280;39611;46.062;8.950;2023-04-28T10:03:25;96735.13;;;16.58;60.28
52441;BME280;39611;46.062;8.950;2023-04-28T10:05:56;96736.50;;;16.56;57.85
52441;BME280;39611;46.062;8.950;2023-04-28T10:08:25;96729.78;;;16.58;58.94
52441;BME280;39611;46.062;8.950;2023-04-28T10:10:52;96730.38;;;16.55;59.48
52441;BME280;39611;46.062;8.950;2023-04-28T10:13:20;96716.72;;;16.57;59.84
52441;BME280;39611;46.062;8.950;2023-04-28T10:15:50;96709.69;;;16.61;61.46
52441;BME280;39611;46.062;8.950;2023-04-28T10:18:22;96706.22;;;16.60;60.89
52441;BME280;39611;46.062;8.950;2023-04-28T10:20:52;96705.28;;;16.65;60.21
52441;BME280;39611;46.062;8.950;2023-04-28T10:23:46;96697.75;;;16.67;58.41
52441;BME280;39611;46.062;8.950;2023-04-28T10:26:17;96699.22;;;16.73;58.18
52441;BME280;39611;46.062;8.950;2023-04-28T10:28:49;96704.78;;;16.86;54.61
52441;BME280;39611;46.062;8.950;2023-04-28T10:31:17;96695.25;;;16.93;56.63
52441;BME280;39611;46.062;8.950;2023-04-28T10:33:46;96690.59;;;17.08;58.90
52441;BME280;39611;46.062;8.950;2023-04-28T10:36:51;96696.59;;;17.22;57.24
52441;BME280;39611;46.062;8.950;2023-04-28T10:39:20;96695.06;;;17.30;51.88
52441;BME280;39611;46.062;8.950;2023-04-28T10:41:46;96688.72;;;17.17;53.54
52441;BME280;39611;46.062;8.950;2023-04-28T10:47:02;96676.72;;;17.54;52.67
52441;BME280;39611;46.062;8.950;2023-04-28T10:55:33;96661.63;;;17.76;50.41
52441;BME280;39611;46.062;8.950;2023-04-28T11:00:41;96659.09;;;17.71;50.97
52441;BME280;39611;46.062;8.950;2023-04-28T11:03:08;96650.47;;;17.56;50.35
52441;BME280;39611;46.062;8.950;2023-04-28T11:05:35;96636.28;;;17.64;51.52
52441;BME280;39611;46.062;8.950;2023-04-28T11:08:30;96640.69;;;17.78;49.43
52441;BME280;39611;46.062;8.950;2023-04-28T11:11:22;96630.31;;;17.76;51.18
52441;BME280;39611;46.062;8.950;2023-04-28T11:13:55;96635.19;;;18.00;55.52
52441;BME280;39611;46.062;8.950;2023-04-28T11:16:51;96629.69;;;18.14;53.35
52441;BME280;39611;46.062;8.950;2023-04-28T11:19:36;96631.06;;;18.29;51.17
52441;BME280;39611;46.062;8.950;2023-04-28T11:22:23;96635.28;;;18.47;51.27
52441;BME280;39611;46.062;8.950;2023-04-28T11:24:58;96633.69;;;18.46;51.46
52441;BME280;39611;46.062;8.950;2023-04-28T11:27:25;96630.09;;;18.42;48.34
52441;BME280;39611;46.062;8.950;2023-04-28T11:29:53;96632.78;;;18.42;47.54
52441;BME280;39611;46.062;8.950;2023-04-28T11:34:53;96630.84;;;18.51;52.14
52441;BME280;39611;46.062;8.950;2023-04-28T11:37:19;96626.16;;;18.31;47.42
52441;BME280;39611;46.062;8.950;2023-04-28T11:39:46;96620.06;;;18.22;49.37
52441;BME280;39611;46.062;8.950;2023-04-28T11:42:13;96620.53;;;18.24;49.08
52441;BME280;39611;46.062;8.950;2023-04-28T11:44:39;96616.28;;;18.23;45.20
52441;BME280;39611;46.062;8.950;2023-04-28T11:47:06;96615.94;;;18.33;45.07
52441;BME280;39611;46.062;8.950;2023-04-28T11:49:43;96615.16;;;18.32;49.23
52441;BME280;39611;46.062;8.950;2023-04-28T11:52:11;96614.53;;;18.27;46.94
52441;BME280;39611;46.062;8.950;2023-04-28T11:54:38;96606.50;;;18.27;47.87
52441;BME280;39611;46.062;8.950;2023-04-28T11:57:04;96614.19;;;18.28;49.52
52441;BME280;39611;46.062;8.950;2023-04-28T11:59:34;96603.66;;;18.23;48.01
52441;BME280;39611;46.062;8.950;2023-04-28T12:02:06;96614.19;;;18.28;50.74
52441;BME280;39611;46.062;8.950;2023-04-28T12:04:41;96601.28;;;18.30;52.31
52441;BME280;39611;46.062;8.950;2023-04-28T12:09:37;96584.44;;;18.30;51.57
52441;BME280;39611;46.062;8.950;2023-04-28T12:12:05;96594.97;;;18.35;47.65
52441;BME280;39611;46.062;8.950;2023-04-28T12:14:52;96599.09;;;18.32;48.94
52441;BME280;39611;46.062;8.950;2023-04-28T12:17:35;96597.50;;;18.40;50.47
52441;BME280;39611;46.062;8.950;2023-04-28T12:20:05;96590.22;;;18.41;46.31
52441;BME280;39611;46.062;8.950;2023-04-28T12:22:44;96584.56;;;18.33;48.61
52441;BME280;39611;46.062;8.950;2023-04-28T12:25:13;96585.66;;;18.41;46.53
52441;BME280;39611;46.062;8.950;2023-04-28T12:28:00;96574.03;;;18.37;44.98
52441;BME280;39611;46.062;8.950;2023-04-28T12:30:29;96582.25;;;18.32;45.20
52441;BME280;39611;46.062;8.950;2023-04-28T12:32:56;96580.81;;;18.34;46.35
52441;BME280;39611;46.062;8.950;2023-04-28T12:35:24;96583.78;;;18.33;50.03
52441;BME280;39611;46.062;8.950;2023-04-28T12:37:52;96580.81;;;18.34;48.89
52441;BME280;39611;46.062;8.950;2023-04-28T12:40:20;96571.66;;;18.36;50.06
52441;BME280;39611;46.062;8.950;2023-04-28T12:42:47;96562.66;;;18.40;49.69
52441;BME280;39611;46.062;8.950;2023-04-28T12:45:13;96565.00;;;18.42;50.46
52441;BME280;39611;46.062;8.950;2023-04-28T12:47:41;96552.75;;;18.41;48.68
52441;BME280;39611;46.062;8.950;2023-04-28T12:50:08;96562.19;;;18.38;47.01
52441;BME280;39611;46.062;8.950;2023-04-28T12:52:34;96565.34;;;18.40;47.02
52441;BME280;39611;46.062;8.950;2023-04-28T12:55:03;96552.75;;;18.41;47.02
52441;BME280;39611;46.062;8.950;2023-04-28T12:57:30;96558.09;;;18.41;49.79
52441;BME280;39611;46.062;8.950;2023-04-28T12:59:56;96554.94;;;18.39;51.30
52441;BME280;39611;46.062;8.950;2023-04-28T13:02:23;96560.63;;;18.37;51.14
52441;BME280;39611;46.062;8.950;2023-04-28T13:04:49;96546.31;;;18.33;50.14
52441;BME280;39611;46.062;8.950;2023-04-28T13:07:17;96554.81;;;18.35;50.95
52441;BME280;39611;46.062;8.950;2023-04-28T13:09:44;96560.63;;;18.37;51.34
52441;BME280;39611;46.062;8.950;2023-04-28T13:12:12;96557.63;;;18.39;51.54
52441;BME280;39611;46.062;8.950;2023-04-28T13:14:39;96553.53;;;18.41;51.34
52441;BME280;39611;46.062;8.950;2023-04-28T13:17:06;96551.31;;;18.43;48.75
52441;BME280;39611;46.062;8.950;2023-04-28T13:19:33;96552.25;;;18.47;50.30
52441;BME280;39611;46.062;8.950;2023-04-28T13:21:59;96544.22;;;18.47;51.69
52441;BME280;39611;46.062;8.950;2023-04-28T13:24:26;96531.25;;;18.49;52.37